30.5°F
Current conditions from King Hill
Updated every 5 minutes
 
  Wednesday November 26, 2014

Station Historical Data
Daily Summary for June 1, 2012 Units:  Both    English   Metric
« Previous Day
Next Day »
Daily Weekly Monthly Yearly Custom
  High: Low: Average:
Temperature: 70.3 °F /  21.3 °C 41.7 °F /  5.4 °C 57.9 °F /  14.4 °C
Dew Point: 51.9 °F /  11.1 °C 37.8 °F /  3.2 °C 44.6 °F /  7 °C
Humidity: 95% 35% 65%
Wind Speed: 5.0mph /  8km/h - 1.6mph /  2.6km/h
Wind Gust: 12.0mph /  19.3km/h - -
Wind- - ESE
Pressure: 30.05 in /  1017.5 hPa 29.87 in /  1011.4 hPa -
Precipitation: 0.00 in /  0 mm    
Historical Graphs
 
 
Tabular Data for June 1, 2012
Time Temperature Dew Point Pressure Wind Wind Speed Wind Gust Humidity Daily Rainfall
00:04 47.8 °F /  8.8 °C 42.3 °F /  5.7 °C 29.97in /  1014.8hPa Calm     81% 0.00in /  0mm
00:10 47.4 °F /  8.6 °C 41.9 °F /  5.5 °C 29.96in /  1014.4hPa Calm     81% 0.00in /  0mm
00:14 47.0 °F /  8.3 °C 41.8 °F /  5.4 °C 29.97in /  1014.8hPa Calm     82% 0.00in /  0mm
00:20 46.5 °F /  8.1 °C 41.3 °F /  5.2 °C 29.97in /  1014.8hPa Calm     82% 0.00in /  0mm
00:24 46.2 °F /  7.9 °C 41.3 °F /  5.2 °C 29.97in /  1014.8hPa Calm     83% 0.00in /  0mm
00:29 46.0 °F /  7.8 °C 41.4 °F /  5.2 °C 29.97in /  1014.8hPa Calm     84% 0.00in /  0mm
00:35 45.8 °F /  7.7 °C 41.6 °F /  5.3 °C 29.97in /  1014.8hPa Calm     85% 0.00in /  0mm
00:39 45.6 °F /  7.6 °C 41.4 °F /  5.2 °C 29.97in /  1014.8hPa Calm     85% 0.00in /  0mm
00:44 45.3 °F /  7.4 °C 41.1 °F /  5.1 °C 29.97in /  1014.8hPa Calm     85% 0.00in /  0mm
00:50 45.1 °F /  7.3 °C 41.2 °F /  5.1 °C 29.97in /  1014.8hPa Calm     86% 0.00in /  0mm
00:54 45.0 °F /  7.2 °C 41.1 °F /  5.1 °C 29.96in /  1014.4hPa Calm     86% 0.00in /  0mm
00:59 44.9 °F /  7.2 °C 41.0 °F /  5 °C 29.96in /  1014.4hPa Calm     86% 0.00in /  0mm
01:05 44.7 °F /  7.1 °C 41.1 °F /  5.1 °C 29.96in /  1014.4hPa Calm     87% 0.00in /  0mm
01:14 44.4 °F /  6.9 °C 40.8 °F /  4.9 °C 29.97in /  1014.8hPa Calm     87% 0.00in /  0mm
01:19 44.3 °F /  6.8 °C 40.7 °F /  4.8 °C 29.97in /  1014.8hPa Calm     87% 0.00in /  0mm
01:25 44.1 °F /  6.7 °C 40.5 °F /  4.7 °C 29.97in /  1014.8hPa Calm     87% 0.00in /  0mm
01:35 44.0 °F /  6.7 °C 40.7 °F /  4.8 °C 29.97in /  1014.8hPa Calm     88% 0.00in /  0mm
01:39 44.0 °F /  6.7 °C 40.7 °F /  4.8 °C 29.97in /  1014.8hPa Calm     88% 0.00in /  0mm
01:44 43.9 °F /  6.6 °C 40.6 °F /  4.8 °C 29.97in /  1014.8hPa Calm     88% 0.00in /  0mm
01:49 43.8 °F /  6.6 °C 40.8 °F /  4.9 °C 29.97in /  1014.8hPa Calm     89% 0.00in /  0mm
01:55 43.7 °F /  6.5 °C 40.7 °F /  4.8 °C 29.98in /  1015.1hPa Calm     89% 0.00in /  0mm
02:04 43.5 °F /  6.4 °C 40.5 °F /  4.7 °C 29.98in /  1015.1hPa Calm     89% 0.00in /  0mm
02:10 43.3 °F /  6.3 °C 40.3 °F /  4.6 °C 29.98in /  1015.1hPa Calm     89% 0.00in /  0mm
02:14 43.2 °F /  6.2 °C 40.2 °F /  4.6 °C 29.98in /  1015.1hPa Calm     89% 0.00in /  0mm
02:20 43.2 °F /  6.2 °C 40.2 °F /  4.6 °C 29.98in /  1015.1hPa Calm     89% 0.00in /  0mm
02:24 43.1 °F /  6.2 °C 40.1 °F /  4.5 °C 29.98in /  1015.1hPa Calm     89% 0.00in /  0mm
02:29 43.1 °F /  6.2 °C 40.4 °F /  4.7 °C 29.98in /  1015.1hPa Calm     90% 0.00in /  0mm
02:35 42.9 °F /  6.1 °C 40.2 °F /  4.6 °C 29.98in /  1015.1hPa Calm     90% 0.00in /  0mm
02:39 42.7 °F /  5.9 °C 40.0 °F /  4.4 °C 29.99in /  1015.5hPa Calm     90% 0.00in /  0mm
02:44 42.6 °F /  5.9 °C 39.9 °F /  4.4 °C 29.98in /  1015.1hPa Calm     90% 0.00in /  0mm
02:49 42.6 °F /  5.9 °C 39.9 °F /  4.4 °C 29.99in /  1015.5hPa Calm     90% 0.00in /  0mm
02:54 42.5 °F /  5.8 °C 39.8 °F /  4.3 °C 29.98in /  1015.1hPa Calm     90% 0.00in /  0mm
02:59 42.5 °F /  5.8 °C 39.8 °F /  4.3 °C 29.98in /  1015.1hPa Calm     90% 0.00in /  0mm
03:04 42.4 °F /  5.8 °C 39.7 °F /  4.3 °C 29.99in /  1015.5hPa Calm     90% 0.00in /  0mm
03:10 42.3 °F /  5.7 °C 39.9 °F /  4.4 °C 29.99in /  1015.5hPa Calm     91% 0.00in /  0mm
03:14 42.3 °F /  5.7 °C 39.9 °F /  4.4 °C 29.99in /  1015.5hPa Calm     91% 0.00in /  0mm
03:20 42.2 °F /  5.7 °C 39.8 °F /  4.3 °C 29.99in /  1015.5hPa Calm     91% 0.00in /  0mm
03:24 42.1 °F /  5.6 °C 39.7 °F /  4.3 °C 29.99in /  1015.5hPa Calm     91% 0.00in /  0mm
03:29 42.1 °F /  5.6 °C 39.7 °F /  4.3 °C 29.99in /  1015.5hPa Calm     91% 0.00in /  0mm
03:34 42.1 °F /  5.6 °C 39.7 °F /  4.3 °C 29.99in /  1015.5hPa Calm     91% 0.00in /  0mm
03:39 42.1 °F /  5.6 °C 39.7 °F /  4.3 °C 30.00in /  1015.8hPa Calm     91% 0.00in /  0mm
03:45 42.0 °F /  5.6 °C 39.8 °F /  4.3 °C 30.00in /  1015.8hPa Calm     92% 0.00in /  0mm
03:50 42.0 °F /  5.6 °C 39.8 °F /  4.3 °C 30.00in /  1015.8hPa Calm     92% 0.00in /  0mm
03:59 42.1 °F /  5.6 °C 39.9 °F /  4.4 °C 29.99in /  1015.5hPa Calm     92% 0.00in /  0mm
04:05 42.1 °F /  5.6 °C 39.9 °F /  4.4 °C 30.00in /  1015.8hPa Calm     92% 0.00in /  0mm
04:09 42.1 °F /  5.6 °C 39.9 °F /  4.4 °C 29.99in /  1015.5hPa Calm     92% 0.00in /  0mm
04:15 42.1 °F /  5.6 °C 39.9 °F /  4.4 °C 29.99in /  1015.5hPa Calm     92% 0.00in /  0mm
04:19 42.0 °F /  5.6 °C 39.8 °F /  4.3 °C 30.00in /  1015.8hPa Calm     92% 0.00in /  0mm
04:25 42.0 °F /  5.6 °C 39.8 °F /  4.3 °C 30.00in /  1015.8hPa Calm     92% 0.00in /  0mm
04:29 42.2 °F /  5.7 °C 40.3 °F /  4.6 °C 30.00in /  1015.8hPa Calm     93% 0.00in /  0mm
04:34 42.3 °F /  5.7 °C 40.4 °F /  4.7 °C 30.01in /  1016.1hPa Calm     93% 0.00in /  0mm
04:39 42.4 °F /  5.8 °C 40.5 °F /  4.7 °C 30.00in /  1015.8hPa Calm     93% 0.00in /  0mm
04:44 42.6 °F /  5.9 °C 40.7 °F /  4.8 °C 30.01in /  1016.1hPa Calm     93% 0.00in /  0mm
04:49 42.6 °F /  5.9 °C 40.7 °F /  4.8 °C 30.01in /  1016.1hPa Calm     93% 0.00in /  0mm
04:54 42.5 °F /  5.8 °C 40.6 °F /  4.8 °C 30.01in /  1016.1hPa Calm     93% 0.00in /  0mm
04:59 42.3 °F /  5.7 °C 40.4 °F /  4.7 °C 30.01in /  1016.1hPa Calm     93% 0.00in /  0mm
05:05 42.2 °F /  5.7 °C 40.3 °F /  4.6 °C 30.01in /  1016.1hPa Calm     93% 0.00in /  0mm
05:15 42.1 °F /  5.6 °C 40.2 °F /  4.6 °C 30.02in /  1016.5hPa Calm     93% 0.00in /  0mm
05:24 42.0 °F /  5.6 °C 40.1 °F /  4.5 °C 30.02in /  1016.5hPa Calm     93% 0.00in /  0mm
05:29 41.9 °F /  5.5 °C 40.0 °F /  4.4 °C 30.02in /  1016.5hPa Calm     93% 0.00in /  0mm
05:35 41.8 °F /  5.4 °C 39.9 °F /  4.4 °C 30.02in /  1016.5hPa Calm     93% 0.00in /  0mm
05:44 41.7 °F /  5.4 °C 39.8 °F /  4.3 °C 30.01in /  1016.1hPa Calm     93% 0.00in /  0mm
05:49 41.7 °F /  5.4 °C 39.8 °F /  4.3 °C 30.02in /  1016.5hPa Calm     93% 0.00in /  0mm
05:54 41.8 °F /  5.4 °C 39.9 °F /  4.4 °C 30.02in /  1016.5hPa Calm     93% 0.00in /  0mm
05:59 41.9 °F /  5.5 °C 40.0 °F /  4.4 °C 30.03in /  1016.8hPa Calm     93% 0.00in /  0mm
06:04 42.0 °F /  5.6 °C 40.4 °F /  4.7 °C 30.02in /  1016.5hPa Calm     94% 0.00in /  0mm
06:09 42.2 °F /  5.7 °C 40.6 °F /  4.8 °C 30.02in /  1016.5hPa Calm     94% 0.00in /  0mm
06:15 42.2 °F /  5.7 °C 40.6 °F /  4.8 °C 30.02in /  1016.5hPa Calm     94% 0.00in /  0mm
06:24 42.8 °F /  6 °C 41.2 °F /  5.1 °C 30.03in /  1016.8hPa Calm     94% 0.00in /  0mm
06:29 43.2 °F /  6.2 °C 41.6 °F /  5.3 °C 30.03in /  1016.8hPa Calm     94% 0.00in /  0mm
06:35 43.6 °F /  6.4 °C 42.0 °F /  5.6 °C 30.03in /  1016.8hPa Calm     94% 0.00in /  0mm
06:44 44.4 °F /  6.9 °C 43.1 °F /  6.2 °C 30.03in /  1016.8hPa Calm     95% 0.00in /  0mm
06:49 45.0 °F /  7.2 °C 43.7 °F /  6.5 °C 30.03in /  1016.8hPa Calm     95% 0.00in /  0mm
06:54 45.8 °F /  7.7 °C 44.5 °F /  6.9 °C 30.03in /  1016.8hPa Calm     95% 0.00in /  0mm
06:59 46.4 °F /  8 °C 45.0 °F /  7.2 °C 30.03in /  1016.8hPa Calm     95% 0.00in /  0mm
07:04 46.9 °F /  8.3 °C 45.5 °F /  7.5 °C 30.03in /  1016.8hPa Calm     95% 0.00in /  0mm
07:09 47.4 °F /  8.6 °C 46.0 °F /  7.8 °C 30.03in /  1016.8hPa Calm     95% 0.00in /  0mm
07:14 47.7 °F /  8.7 °C 46.3 °F /  7.9 °C 30.03in /  1016.8hPa Calm     95% 0.00in /  0mm
07:19 48.2 °F /  9 °C 46.8 °F /  8.2 °C 30.03in /  1016.8hPa Calm     95% 0.00in /  0mm
07:24 48.7 °F /  9.3 °C 47.3 °F /  8.5 °C 30.03in /  1016.8hPa Calm     95% 0.00in /  0mm
07:29 49.2 °F /  9.6 °C 47.8 °F /  8.8 °C 30.03in /  1016.8hPa Calm     95% 0.00in /  0mm
07:34 49.3 °F /  9.6 °C 47.9 °F /  8.8 °C 30.03in /  1016.8hPa Calm   1.0mph /  1.6km/h 95% 0.00in /  0mm
07:39 49.2 °F /  9.6 °C 47.8 °F /  8.8 °C 30.03in /  1016.8hPa Calm   1.0mph /  1.6km/h 95% 0.00in /  0mm
07:44 49.3 °F /  9.6 °C 47.9 °F /  8.8 °C 30.03in /  1016.8hPa Calm     95% 0.00in /  0mm
07:49 49.7 °F /  9.8 °C 48.3 °F /  9.1 °C 30.04in /  1017.2hPa Calm   1.0mph /  1.6km/h 95% 0.00in /  0mm
07:54 50.5 °F /  10.3 °C 49.1 °F /  9.5 °C 30.04in /  1017.2hPa Calm   2.0mph /  3.2km/h 95% 0.00in /  0mm
07:59 51.0 °F /  10.6 °C 49.3 °F /  9.6 °C 30.04in /  1017.2hPa Calm   2.0mph /  3.2km/h 94% 0.00in /  0mm
08:04 51.9 °F /  11.1 °C 49.7 °F /  9.8 °C 30.04in /  1017.2hPa Calm   1.0mph /  1.6km/h 92% 0.00in /  0mm
08:09 52.9 °F /  11.6 °C 49.4 °F /  9.7 °C 30.04in /  1017.2hPa Calm   1.0mph /  1.6km/h 88% 0.00in /  0mm
08:14 53.8 °F /  12.1 °C 49.1 °F /  9.5 °C 30.04in /  1017.2hPa Calm   2.0mph /  3.2km/h 84% 0.00in /  0mm
08:19 55.2 °F /  12.9 °C 49.5 °F /  9.7 °C 30.04in /  1017.2hPa Calm   2.0mph /  3.2km/h 81% 0.00in /  0mm
08:24 56.0 °F /  13.3 °C 48.5 °F /  9.2 °C 30.04in /  1017.2hPa Calm   5.0mph /  8km/h 76% 0.00in /  0mm
08:29 56.9 °F /  13.8 °C 48.7 °F /  9.3 °C 30.04in /  1017.2hPa Calm   5.0mph /  8km/h 74% 0.00in /  0mm
08:34 57.3 °F /  14.1 °C 48.4 °F /  9.1 °C 30.04in /  1017.2hPa Calm   3.0mph /  4.8km/h 72% 0.00in /  0mm
08:39 57.5 °F /  14.2 °C 48.2 °F /  9 °C 30.04in /  1017.2hPa Calm   3.0mph /  4.8km/h 71% 0.00in /  0mm
08:44 57.8 °F /  14.3 °C 48.1 °F /  8.9 °C 30.04in /  1017.2hPa NNE 2.0mph /  3.2km/h 6.0mph /  9.7km/h 70% 0.00in /  0mm
08:49 58.1 °F /  14.5 °C 48.8 °F /  9.3 °C 30.04in /  1017.2hPa ESE 1.0mph /  1.6km/h 6.0mph /  9.7km/h 71% 0.00in /  0mm
08:54 58.4 °F /  14.7 °C 49.0 °F /  9.4 °C 30.04in /  1017.2hPa North 1.0mph /  1.6km/h 5.0mph /  8km/h 71% 0.00in /  0mm
08:59 59.0 °F /  15 °C 48.5 °F /  9.2 °C 30.04in /  1017.2hPa Calm   3.0mph /  4.8km/h 68% 0.00in /  0mm
09:04 59.4 °F /  15.2 °C 48.8 °F /  9.3 °C 30.04in /  1017.2hPa NE 1.0mph /  1.6km/h 3.0mph /  4.8km/h 68% 0.00in /  0mm
09:09 60.1 °F /  15.6 °C 49.5 °F /  9.7 °C 30.04in /  1017.2hPa Calm   3.0mph /  4.8km/h 68% 0.00in /  0mm
09:14 59.8 °F /  15.4 °C 47.6 °F /  8.7 °C 30.04in /  1017.2hPa NE 2.0mph /  3.2km/h 7.0mph /  11.3km/h 64% 0.00in /  0mm
09:19 59.4 °F /  15.2 °C 48.4 °F /  9.1 °C 30.04in /  1017.2hPa Calm   7.0mph /  11.3km/h 67% 0.00in /  0mm
09:24 59.0 °F /  15 °C 46.4 °F /  8 °C 30.04in /  1017.2hPa East 1.0mph /  1.6km/h 5.0mph /  8km/h 63% 0.00in /  0mm
09:29 59.0 °F /  15 °C 47.7 °F /  8.7 °C 30.04in /  1017.2hPa ESE 1.0mph /  1.6km/h 5.0mph /  8km/h 66% 0.00in /  0mm
09:34 59.0 °F /  15 °C 46.8 °F /  8.2 °C 30.05in /  1017.5hPa Calm   3.0mph /  4.8km/h 64% 0.00in /  0mm
09:39 59.5 °F /  15.3 °C 48.1 °F /  8.9 °C 30.05in /  1017.5hPa Calm   1.0mph /  1.6km/h 66% 0.00in /  0mm
09:44 59.8 °F /  15.4 °C 46.8 °F /  8.2 °C 30.05in /  1017.5hPa Calm   4.0mph /  6.4km/h 62% 0.00in /  0mm
09:49 60.1 °F /  15.6 °C 45.7 °F /  7.6 °C 30.05in /  1017.5hPa Calm   4.0mph /  6.4km/h 59% 0.00in /  0mm
09:54 60.8 °F /  16 °C 45.9 °F /  7.7 °C 30.05in /  1017.5hPa Calm   3.0mph /  4.8km/h 58% 0.00in /  0mm
09:59 61.8 °F /  16.6 °C 44.5 °F /  6.9 °C 30.05in /  1017.5hPa ENE 2.0mph /  3.2km/h 7.0mph /  11.3km/h 53% 0.00in /  0mm
10:04 62.7 °F /  17.1 °C 44.3 °F /  6.8 °C 30.05in /  1017.5hPa NE 1.0mph /  1.6km/h 7.0mph /  11.3km/h 51% 0.00in /  0mm
10:09 62.9 °F /  17.2 °C 42.9 °F /  6.1 °C 30.05in /  1017.5hPa NNE 2.0mph /  3.2km/h 6.0mph /  9.7km/h 48% 0.00in /  0mm
10:14 62.8 °F /  17.1 °C 43.4 °F /  6.3 °C 30.04in /  1017.2hPa NE 2.0mph /  3.2km/h 8.0mph /  12.9km/h 49% 0.00in /  0mm
10:19 62.8 °F /  17.1 °C 42.3 °F /  5.7 °C 30.05in /  1017.5hPa Calm   8.0mph /  12.9km/h 47% 0.00in /  0mm
10:24 62.8 °F /  17.1 °C 42.3 °F /  5.7 °C 30.04in /  1017.2hPa Calm   6.0mph /  9.7km/h 47% 0.00in /  0mm
10:29 63.5 °F /  17.5 °C 42.9 °F /  6.1 °C 30.04in /  1017.2hPa Calm   4.0mph /  6.4km/h 47% 0.00in /  0mm
10:34 64.1 °F /  17.8 °C 42.9 °F /  6.1 °C 30.04in /  1017.2hPa NE 1.0mph /  1.6km/h 6.0mph /  9.7km/h 46% 0.00in /  0mm
10:39 64.7 °F /  18.2 °C 45.6 °F /  7.6 °C 30.03in /  1016.8hPa Calm   6.0mph /  9.7km/h 50% 0.00in /  0mm
10:44 65.3 °F /  18.5 °C 41.0 °F /  5 °C 30.03in /  1016.8hPa Calm   6.0mph /  9.7km/h 41% 0.00in /  0mm
10:49 65.7 °F /  18.7 °C 42.6 °F /  5.9 °C 30.03in /  1016.8hPa East 1.0mph /  1.6km/h 6.0mph /  9.7km/h 43% 0.00in /  0mm
10:54 66.0 °F /  18.9 °C 41.6 °F /  5.3 °C 30.04in /  1017.2hPa Calm   6.0mph /  9.7km/h 41% 0.00in /  0mm
10:59 66.6 °F /  19.2 °C 42.2 °F /  5.7 °C 30.04in /  1017.2hPa ENE 1.0mph /  1.6km/h 7.0mph /  11.3km/h 41% 0.00in /  0mm
11:05 66.6 °F /  19.2 °C 44.0 °F /  6.7 °C 30.03in /  1016.8hPa Calm   7.0mph /  11.3km/h 44% 0.00in /  0mm
11:14 66.6 °F /  19.2 °C 40.9 °F /  4.9 °C 30.04in /  1017.2hPa Calm   9.0mph /  14.5km/h 39% 0.00in /  0mm
11:19 66.3 °F /  19.1 °C 37.8 °F /  3.2 °C 30.04in /  1017.2hPa NE 2.0mph /  3.2km/h 9.0mph /  14.5km/h 35% 0.00in /  0mm
11:24 66.0 °F /  18.9 °C 41.6 °F /  5.3 °C 30.03in /  1016.8hPa Calm   9.0mph /  14.5km/h 41% 0.00in /  0mm
11:30 66.0 °F /  18.9 °C 39.7 °F /  4.3 °C 30.03in /  1016.8hPa ENE 1.0mph /  1.6km/h 8.0mph /  12.9km/h 38% 0.00in /  0mm
11:39 66.4 °F /  19.1 °C 45.6 °F /  7.6 °C 30.03in /  1016.8hPa Calm   1.0mph /  1.6km/h 47% 0.00in /  0mm
11:44 67.0 °F /  19.4 °C 40.6 °F /  4.8 °C 30.02in /  1016.5hPa NE 2.0mph /  3.2km/h 11.0mph /  17.7km/h 38% 0.00in /  0mm
11:49 66.8 °F /  19.3 °C 42.4 °F /  5.8 °C 30.02in /  1016.5hPa Calm   11.0mph /  17.7km/h 41% 0.00in /  0mm
11:54 66.5 °F /  19.2 °C 38.7 °F /  3.7 °C 30.02in /  1016.5hPa Calm   5.0mph /  8km/h 36% 0.00in /  0mm
11:59 66.6 °F /  19.2 °C 42.2 °F /  5.7 °C 30.02in /  1016.5hPa Calm   5.0mph /  8km/h 41% 0.00in /  0mm
12:04 67.2 °F /  19.6 °C 44.0 °F /  6.7 °C 30.02in /  1016.5hPa Calm   1.0mph /  1.6km/h 43% 0.00in /  0mm
12:09 67.5 °F /  19.7 °C 44.8 °F /  7.1 °C 30.01in /  1016.1hPa NNE 1.0mph /  1.6km/h 7.0mph /  11.3km/h 44% 0.00in /  0mm
12:14 67.3 °F /  19.6 °C 42.8 °F /  6 °C 30.01in /  1016.1hPa Calm   7.0mph /  11.3km/h 41% 0.00in /  0mm
12:19 68.2 °F /  20.1 °C 47.2 °F /  8.4 °C 30.01in /  1016.1hPa Calm   6.0mph /  9.7km/h 47% 0.00in /  0mm
12:24 68.1 °F /  20.1 °C 41.6 °F /  5.3 °C 30.01in /  1016.1hPa Calm   5.0mph /  8km/h 38% 0.00in /  0mm
12:29 67.3 °F /  19.6 °C 41.5 °F /  5.3 °C 30.01in /  1016.1hPa Calm   5.0mph /  8km/h 39% 0.00in /  0mm
12:34 67.2 °F /  19.6 °C 42.1 °F /  5.6 °C 30.01in /  1016.1hPa Calm   5.0mph /  8km/h 40% 0.00in /  0mm
12:39 67.2 °F /  19.6 °C 43.4 °F /  6.3 °C 30.01in /  1016.1hPa Calm   5.0mph /  8km/h 42% 0.00in /  0mm
12:44 67.4 °F /  19.7 °C 45.9 °F /  7.7 °C 30.01in /  1016.1hPa Calm   5.0mph /  8km/h 46% 0.00in /  0mm
12:49 67.5 °F /  19.7 °C 41.7 °F /  5.4 °C 30.00in /  1015.8hPa Calm   5.0mph /  8km/h 39% 0.00in /  0mm
12:54 67.9 °F /  19.9 °C 47.5 °F /  8.6 °C 30.00in /  1015.8hPa ESE 2.0mph /  3.2km/h 5.0mph /  8km/h 48% 0.00in /  0mm
12:59 68.2 °F /  20.1 °C 44.9 °F /  7.2 °C 30.00in /  1015.8hPa Calm   5.0mph /  8km/h 43% 0.00in /  0mm
13:04 68.6 °F /  20.3 °C 45.2 °F /  7.3 °C 30.00in /  1015.8hPa Calm   4.0mph /  6.4km/h 43% 0.00in /  0mm
13:09 68.8 °F /  20.4 °C 46.0 °F /  7.8 °C 30.00in /  1015.8hPa Calm   5.0mph /  8km/h 44% 0.00in /  0mm
13:14 68.9 °F /  20.5 °C 43.6 °F /  6.4 °C 30.00in /  1015.8hPa Calm   5.0mph /  8km/h 40% 0.00in /  0mm
13:19 69.0 °F /  20.6 °C 45.6 °F /  7.6 °C 30.00in /  1015.8hPa ESE 2.0mph /  3.2km/h 12.0mph /  19.3km/h 43% 0.00in /  0mm
13:24 68.8 °F /  20.4 °C 46.0 °F /  7.8 °C 29.99in /  1015.5hPa Calm   12.0mph /  19.3km/h 44% 0.00in /  0mm
13:29 68.8 °F /  20.4 °C 42.2 °F /  5.7 °C 29.99in /  1015.5hPa Calm   7.0mph /  11.3km/h 38% 0.00in /  0mm
13:34 68.6 °F /  20.3 °C 44.6 °F /  7 °C 29.99in /  1015.5hPa Calm   4.0mph /  6.4km/h 42% 0.00in /  0mm
13:39 68.8 °F /  20.4 °C 44.8 °F /  7.1 °C 29.99in /  1015.5hPa NE 1.0mph /  1.6km/h 5.0mph /  8km/h 42% 0.00in /  0mm
13:44 68.9 °F /  20.5 °C 44.3 °F /  6.8 °C 29.99in /  1015.5hPa Calm   6.0mph /  9.7km/h 41% 0.00in /  0mm
13:49 69.2 °F /  20.7 °C 47.6 °F /  8.7 °C 29.98in /  1015.1hPa Calm   6.0mph /  9.7km/h 46% 0.00in /  0mm
13:54 69.5 °F /  20.8 °C 44.8 °F /  7.1 °C 29.98in /  1015.1hPa Calm   6.0mph /  9.7km/h 41% 0.00in /  0mm
13:59 69.5 °F /  20.8 °C 42.1 °F /  5.6 °C 29.98in /  1015.1hPa Calm   6.0mph /  9.7km/h 37% 0.00in /  0mm
14:04 69.3 °F /  20.7 °C 44.0 °F /  6.7 °C 29.98in /  1015.1hPa Calm   4.0mph /  6.4km/h 40% 0.00in /  0mm
14:09 69.2 °F /  20.7 °C 43.9 °F /  6.6 °C 29.98in /  1015.1hPa Calm   1.0mph /  1.6km/h 40% 0.00in /  0mm
14:14 69.0 °F /  20.6 °C 45.6 °F /  7.6 °C 29.98in /  1015.1hPa Calm   1.0mph /  1.6km/h 43% 0.00in /  0mm
14:19 69.2 °F /  20.7 °C 45.8 °F /  7.7 °C 29.98in /  1015.1hPa Calm   1.0mph /  1.6km/h 43% 0.00in /  0mm
14:24 69.5 °F /  20.8 °C 44.1 °F /  6.7 °C 29.98in /  1015.1hPa Calm   1.0mph /  1.6km/h 40% 0.00in /  0mm
14:29 69.5 °F /  20.8 °C 46.0 °F /  7.8 °C 29.98in /  1015.1hPa Calm   1.0mph /  1.6km/h 43% 0.00in /  0mm
14:34 69.7 °F /  20.9 °C 43.7 °F /  6.5 °C 29.98in /  1015.1hPa Calm   1.0mph /  1.6km/h 39% 0.00in /  0mm
14:39 69.9 °F /  21.1 °C 43.8 °F /  6.6 °C 29.98in /  1015.1hPa Calm     39% 0.00in /  0mm
14:44 70.3 °F /  21.3 °C 45.5 °F /  7.5 °C 29.97in /  1014.8hPa SSW 1.0mph /  1.6km/h 6.0mph /  9.7km/h 41% 0.00in /  0mm
14:49 70.0 °F /  21.1 °C 45.2 °F /  7.3 °C 29.97in /  1014.8hPa SE 2.0mph /  3.2km/h 7.0mph /  11.3km/h 41% 0.00in /  0mm
14:54 69.2 °F /  20.7 °C 45.2 °F /  7.3 °C 29.97in /  1014.8hPa Calm   8.0mph /  12.9km/h 42% 0.00in /  0mm
14:59 69.0 °F /  20.6 °C 44.3 °F /  6.8 °C 29.97in /  1014.8hPa SSW 1.0mph /  1.6km/h 8.0mph /  12.9km/h 41% 0.00in /  0mm
15:05 68.9 °F /  20.5 °C 44.3 °F /  6.8 °C 29.97in /  1014.8hPa Calm   4.0mph /  6.4km/h 41% 0.00in /  0mm
15:14 69.2 °F /  20.7 °C 43.9 °F /  6.6 °C 29.97in /  1014.8hPa Calm   5.0mph /  8km/h 40% 0.00in /  0mm
15:19 69.4 °F /  20.8 °C 42.7 °F /  5.9 °C 29.97in /  1014.8hPa Calm   5.0mph /  8km/h 38% 0.00in /  0mm
15:25 69.6 °F /  20.9 °C 44.2 °F /  6.8 °C 29.96in /  1014.4hPa Calm   5.0mph /  8km/h 40% 0.00in /  0mm
15:34 69.9 °F /  21.1 °C 44.5 °F /  6.9 °C 29.96in /  1014.4hPa SSE 1.0mph /  1.6km/h 6.0mph /  9.7km/h 40% 0.00in /  0mm
15:39 70.0 °F /  21.1 °C 44.6 °F /  7 °C 29.96in /  1014.4hPa Calm   6.0mph /  9.7km/h 40% 0.00in /  0mm
15:44 69.9 °F /  21.1 °C 44.5 °F /  6.9 °C 29.95in /  1014.1hPa Calm   5.0mph /  8km/h 40% 0.00in /  0mm
15:49 70.0 °F /  21.1 °C 43.9 °F /  6.6 °C 29.95in /  1014.1hPa Calm   5.0mph /  8km/h 39% 0.00in /  0mm
15:54 69.9 °F /  21.1 °C 42.5 °F /  5.8 °C 29.95in /  1014.1hPa ESE 5.0mph /  8km/h 7.0mph /  11.3km/h 37% 0.00in /  0mm
15:59 69.2 °F /  20.7 °C 45.8 °F /  7.7 °C 29.94in /  1013.8hPa Calm   7.0mph /  11.3km/h 43% 0.00in /  0mm
16:04 69.0 °F /  20.6 °C 45.6 °F /  7.6 °C 29.94in /  1013.8hPa Calm   7.0mph /  11.3km/h 43% 0.00in /  0mm
16:09 69.0 °F /  20.6 °C 43.7 °F /  6.5 °C 29.94in /  1013.8hPa Calm   4.0mph /  6.4km/h 40% 0.00in /  0mm
16:14 68.8 °F /  20.4 °C 44.2 °F /  6.8 °C 29.94in /  1013.8hPa Calm     41% 0.00in /  0mm
16:19 68.7 °F /  20.4 °C 44.1 °F /  6.7 °C 29.94in /  1013.8hPa Calm     41% 0.00in /  0mm
16:24 68.8 °F /  20.4 °C 49.4 °F /  9.7 °C 29.94in /  1013.8hPa Calm     50% 0.00in /  0mm
16:29 68.7 °F /  20.4 °C 44.1 °F /  6.7 °C 29.94in /  1013.8hPa Calm   1.0mph /  1.6km/h 41% 0.00in /  0mm
16:34 68.6 °F /  20.3 °C 48.1 °F /  8.9 °C 29.93in /  1013.4hPa Calm   1.0mph /  1.6km/h 48% 0.00in /  0mm
16:39 68.4 °F /  20.2 °C 43.2 °F /  6.2 °C 29.93in /  1013.4hPa Calm   1.0mph /  1.6km/h 40% 0.00in /  0mm
16:44 68.6 °F /  20.3 °C 47.6 °F /  8.7 °C 29.93in /  1013.4hPa Calm   1.0mph /  1.6km/h 47% 0.00in /  0mm
16:49 68.4 °F /  20.2 °C 44.4 °F /  6.9 °C 29.93in /  1013.4hPa Calm   1.0mph /  1.6km/h 42% 0.00in /  0mm
16:54 68.1 °F /  20.1 °C 45.4 °F /  7.4 °C 29.93in /  1013.4hPa Calm   1.0mph /  1.6km/h 44% 0.00in /  0mm
16:59 68.0 °F /  20 °C 47.0 °F /  8.3 °C 29.93in /  1013.4hPa Calm   3.0mph /  4.8km/h 47% 0.00in /  0mm
17:04 68.0 °F /  20 °C 50.8 °F /  10.4 °C 29.93in /  1013.4hPa Calm   3.0mph /  4.8km/h 54% 0.00in /  0mm
17:09 67.7 °F /  19.8 °C 46.8 °F /  8.2 °C 29.93in /  1013.4hPa SSE 1.0mph /  1.6km/h 3.0mph /  4.8km/h 47% 0.00in /  0mm
17:14 67.6 °F /  19.8 °C 46.1 °F /  7.8 °C 29.93in /  1013.4hPa Calm   5.0mph /  8km/h 46% 0.00in /  0mm
17:19 67.4 °F /  19.7 °C 46.5 °F /  8.1 °C 29.93in /  1013.4hPa Calm   5.0mph /  8km/h 47% 0.00in /  0mm
17:24 67.4 °F /  19.7 °C 47.6 °F /  8.7 °C 29.92in /  1013.1hPa Calm     49% 0.00in /  0mm
17:29 67.2 °F /  19.6 °C 49.0 °F /  9.4 °C 29.92in /  1013.1hPa Calm     52% 0.00in /  0mm
17:35 67.0 °F /  19.4 °C 48.8 °F /  9.3 °C 29.92in /  1013.1hPa Calm   1.0mph /  1.6km/h 52% 0.00in /  0mm
17:40 66.6 °F /  19.2 °C 47.4 °F /  8.6 °C 29.92in /  1013.1hPa Calm   1.0mph /  1.6km/h 50% 0.00in /  0mm
17:49 65.8 °F /  18.8 °C 50.6 °F /  10.3 °C 29.92in /  1013.1hPa Calm   1.0mph /  1.6km/h 58% 0.00in /  0mm
17:54 65.3 °F /  18.5 °C 51.5 °F /  10.8 °C 29.92in /  1013.1hPa Calm     61% 0.00in /  0mm
17:59 64.8 °F /  18.2 °C 51.0 °F /  10.6 °C 29.92in /  1013.1hPa Calm     61% 0.00in /  0mm
18:04 64.4 °F /  18 °C 51.1 °F /  10.6 °C 29.92in /  1013.1hPa Calm     62% 0.00in /  0mm
18:09 64.2 °F /  17.9 °C 51.8 °F /  11 °C 29.92in /  1013.1hPa Calm     64% 0.00in /  0mm
18:14 63.9 °F /  17.7 °C 51.9 °F /  11.1 °C 29.92in /  1013.1hPa Calm     65% 0.00in /  0mm
18:19 63.7 °F /  17.6 °C 51.7 °F /  10.9 °C 29.92in /  1013.1hPa Calm     65% 0.00in /  0mm
18:24 63.4 °F /  17.4 °C 51.4 °F /  10.8 °C 29.92in /  1013.1hPa Calm     65% 0.00in /  0mm
18:29 63.1 °F /  17.3 °C 50.7 °F /  10.4 °C 29.91in /  1012.8hPa Calm   2.0mph /  3.2km/h 64% 0.00in /  0mm
18:34 63.1 °F /  17.3 °C 50.3 °F /  10.2 °C 29.91in /  1012.8hPa Calm   2.0mph /  3.2km/h 63% 0.00in /  0mm
18:39 63.0 °F /  17.2 °C 50.2 °F /  10.1 °C 29.91in /  1012.8hPa Calm   2.0mph /  3.2km/h 63% 0.00in /  0mm
18:44 62.9 °F /  17.2 °C 49.7 °F /  9.8 °C 29.91in /  1012.8hPa Calm   2.0mph /  3.2km/h 62% 0.00in /  0mm
18:49 62.8 °F /  17.1 °C 49.2 °F /  9.6 °C 29.91in /  1012.8hPa Calm   1.0mph /  1.6km/h 61% 0.00in /  0mm
18:54 62.7 °F /  17.1 °C 49.9 °F /  9.9 °C 29.91in /  1012.8hPa Calm   1.0mph /  1.6km/h 63% 0.00in /  0mm
18:59 62.6 °F /  17 °C 50.7 °F /  10.4 °C 29.91in /  1012.8hPa Calm   1.0mph /  1.6km/h 65% 0.00in /  0mm
19:04 62.3 °F /  16.8 °C 50.4 °F /  10.2 °C 29.91in /  1012.8hPa Calm   2.0mph /  3.2km/h 65% 0.00in /  0mm
19:09 62.1 °F /  16.7 °C 51.0 °F /  10.6 °C 29.91in /  1012.8hPa Calm   2.0mph /  3.2km/h 67% 0.00in /  0mm
19:14 61.9 °F /  16.6 °C 51.6 °F /  10.9 °C 29.90in /  1012.4hPa Calm     69% 0.00in /  0mm
19:19 61.7 °F /  16.5 °C 51.0 °F /  10.6 °C 29.90in /  1012.4hPa Calm   1.0mph /  1.6km/h 68% 0.00in /  0mm
19:24 61.5 °F /  16.4 °C 49.6 °F /  9.8 °C 29.90in /  1012.4hPa Calm   1.0mph /  1.6km/h 65% 0.00in /  0mm
19:29 61.4 °F /  16.3 °C 49.5 °F /  9.7 °C 29.91in /  1012.8hPa Calm     65% 0.00in /  0mm
19:34 61.4 °F /  16.3 °C 50.4 °F /  10.2 °C 29.90in /  1012.4hPa Calm   1.0mph /  1.6km/h 67% 0.00in /  0mm
19:39 61.3 °F /  16.3 °C 49.9 °F /  9.9 °C 29.91in /  1012.8hPa Calm   2.0mph /  3.2km/h 66% 0.00in /  0mm
19:44 61.3 °F /  16.3 °C 49.4 °F /  9.7 °C 29.90in /  1012.4hPa Calm   2.0mph /  3.2km/h 65% 0.00in /  0mm
19:49 61.5 °F /  16.4 °C 48.8 °F /  9.3 °C 29.90in /  1012.4hPa Calm   3.0mph /  4.8km/h 63% 0.00in /  0mm
19:54 61.7 °F /  16.5 °C 49.0 °F /  9.4 °C 29.90in /  1012.4hPa Calm   3.0mph /  4.8km/h 63% 0.00in /  0mm
19:59 61.6 °F /  16.4 °C 47.1 °F /  8.4 °C 29.90in /  1012.4hPa Calm   3.0mph /  4.8km/h 59% 0.00in /  0mm
20:04 61.7 °F /  16.5 °C 48.6 °F /  9.2 °C 29.90in /  1012.4hPa Calm   3.0mph /  4.8km/h 62% 0.00in /  0mm
20:09 61.6 °F /  16.4 °C 50.1 °F /  10.1 °C 29.90in /  1012.4hPa Calm     66% 0.00in /  0mm
20:14 61.3 °F /  16.3 °C 50.7 °F /  10.4 °C 29.90in /  1012.4hPa Calm     68% 0.00in /  0mm
20:19 61.0 °F /  16.1 °C 49.6 °F /  9.8 °C 29.90in /  1012.4hPa Calm     66% 0.00in /  0mm
20:24 61.0 °F /  16.1 °C 46.6 °F /  8.1 °C 29.90in /  1012.4hPa Calm   3.0mph /  4.8km/h 59% 0.00in /  0mm
20:29 61.3 °F /  16.3 °C 48.6 °F /  9.2 °C 29.90in /  1012.4hPa Calm   3.0mph /  4.8km/h 63% 0.00in /  0mm
20:34 61.2 °F /  16.2 °C 47.7 °F /  8.7 °C 29.90in /  1012.4hPa Calm   1.0mph /  1.6km/h 61% 0.00in /  0mm
20:39 61.4 °F /  16.3 °C 46.0 °F /  7.8 °C 29.90in /  1012.4hPa SE 1.0mph /  1.6km/h 6.0mph /  9.7km/h 57% 0.00in /  0mm
20:44 61.9 °F /  16.6 °C 45.1 °F /  7.3 °C 29.90in /  1012.4hPa Calm   6.0mph /  9.7km/h 54% 0.00in /  0mm
20:49 62.2 °F /  16.8 °C 44.9 °F /  7.2 °C 29.90in /  1012.4hPa SE 2.0mph /  3.2km/h 7.0mph /  11.3km/h 53% 0.00in /  0mm
20:54 62.5 °F /  16.9 °C 45.6 °F /  7.6 °C 29.90in /  1012.4hPa Calm   7.0mph /  11.3km/h 54% 0.00in /  0mm
20:59 62.6 °F /  17 °C 44.2 °F /  6.8 °C 29.90in /  1012.4hPa South 2.0mph /  3.2km/h 5.0mph /  8km/h 51% 0.00in /  0mm
21:04 63.0 °F /  17.2 °C 44.6 °F /  7 °C 29.89in /  1012.1hPa East 1.0mph /  1.6km/h 7.0mph /  11.3km/h 51% 0.00in /  0mm
21:09 63.1 °F /  17.3 °C 44.7 °F /  7.1 °C 29.89in /  1012.1hPa Calm   7.0mph /  11.3km/h 51% 0.00in /  0mm
21:14 63.2 °F /  17.3 °C 44.8 °F /  7.1 °C 29.89in /  1012.1hPa ESE 1.0mph /  1.6km/h 5.0mph /  8km/h 51% 0.00in /  0mm
21:19 63.3 °F /  17.4 °C 44.4 °F /  6.9 °C 29.89in /  1012.1hPa Calm   4.0mph /  6.4km/h 50% 0.00in /  0mm
21:24 63.1 °F /  17.3 °C 44.7 °F /  7.1 °C 29.89in /  1012.1hPa Calm   2.0mph /  3.2km/h 51% 0.00in /  0mm
21:29 63.1 °F /  17.3 °C 44.2 °F /  6.8 °C 29.89in /  1012.1hPa SE 1.0mph /  1.6km/h 7.0mph /  11.3km/h 50% 0.00in /  0mm
21:34 63.2 °F /  17.3 °C 45.3 °F /  7.4 °C 29.89in /  1012.1hPa Calm   7.0mph /  11.3km/h 52% 0.00in /  0mm
21:39 62.9 °F /  17.2 °C 45.0 °F /  7.2 °C 29.89in /  1012.1hPa Calm   2.0mph /  3.2km/h 52% 0.00in /  0mm
21:44 62.6 °F /  17 °C 44.7 °F /  7.1 °C 29.89in /  1012.1hPa Calm   1.0mph /  1.6km/h 52% 0.00in /  0mm
21:49 62.5 °F /  16.9 °C 45.2 °F /  7.3 °C 29.89in /  1012.1hPa Calm   6.0mph /  9.7km/h 53% 0.00in /  0mm
21:54 62.4 °F /  16.9 °C 45.1 °F /  7.3 °C 29.89in /  1012.1hPa Calm   6.0mph /  9.7km/h 53% 0.00in /  0mm
21:59 62.4 °F /  16.9 °C 45.1 °F /  7.3 °C 29.89in /  1012.1hPa Calm   6.0mph /  9.7km/h 53% 0.00in /  0mm
22:04 62.3 °F /  16.8 °C 46.4 °F /  8 °C 29.89in /  1012.1hPa Calm   6.0mph /  9.7km/h 56% 0.00in /  0mm
22:09 62.1 °F /  16.7 °C 45.3 °F /  7.4 °C 29.89in /  1012.1hPa Calm   1.0mph /  1.6km/h 54% 0.00in /  0mm
22:14 62.1 °F /  16.7 °C 45.3 °F /  7.4 °C 29.88in /  1011.7hPa SE 3.0mph /  4.8km/h 10.0mph /  16.1km/h 54% 0.00in /  0mm
22:19 62.3 °F /  16.8 °C 45.0 °F /  7.2 °C 29.89in /  1012.1hPa Calm   10.0mph /  16.1km/h 53% 0.00in /  0mm
22:24 62.5 °F /  16.9 °C 45.2 °F /  7.3 °C 29.89in /  1012.1hPa Calm   5.0mph /  8km/h 53% 0.00in /  0mm
22:29 62.6 °F /  17 °C 44.7 °F /  7.1 °C 29.88in /  1011.7hPa Calm   4.0mph /  6.4km/h 52% 0.00in /  0mm
22:34 62.5 °F /  16.9 °C 47.1 °F /  8.4 °C 29.89in /  1012.1hPa Calm   2.0mph /  3.2km/h 57% 0.00in /  0mm
22:39 62.1 °F /  16.7 °C 45.3 °F /  7.4 °C 29.89in /  1012.1hPa South 3.0mph /  4.8km/h 8.0mph /  12.9km/h 54% 0.00in /  0mm
22:44 62.3 °F /  16.8 °C 45.5 °F /  7.5 °C 29.89in /  1012.1hPa SE 1.0mph /  1.6km/h 8.0mph /  12.9km/h 54% 0.00in /  0mm
22:50 62.3 °F /  16.8 °C 45.0 °F /  7.2 °C 29.88in /  1011.7hPa Calm   7.0mph /  11.3km/h 53% 0.00in /  0mm
22:59 62.4 °F /  16.9 °C 44.6 °F /  7 °C 29.88in /  1011.7hPa Calm   7.0mph /  11.3km/h 52% 0.00in /  0mm
23:04 62.3 °F /  16.8 °C 44.5 °F /  6.9 °C 29.88in /  1011.7hPa Calm   5.0mph /  8km/h 52% 0.00in /  0mm
23:09 62.3 °F /  16.8 °C 43.4 °F /  6.3 °C 29.88in /  1011.7hPa SSW 2.0mph /  3.2km/h 8.0mph /  12.9km/h 50% 0.00in /  0mm
23:14 62.3 °F /  16.8 °C 44.5 °F /  6.9 °C 29.88in /  1011.7hPa Calm   8.0mph /  12.9km/h 52% 0.00in /  0mm
23:19 61.8 °F /  16.6 °C 45.5 °F /  7.5 °C 29.88in /  1011.7hPa SSE 1.0mph /  1.6km/h 9.0mph /  14.5km/h 55% 0.00in /  0mm
23:24 61.3 °F /  16.3 °C 46.4 °F /  8 °C 29.88in /  1011.7hPa Calm   9.0mph /  14.5km/h 58% 0.00in /  0mm
23:29 60.7 °F /  15.9 °C 46.3 °F /  7.9 °C 29.88in /  1011.7hPa Calm   7.0mph /  11.3km/h 59% 0.00in /  0mm
23:34 60.3 °F /  15.7 °C 45.0 °F /  7.2 °C 29.88in /  1011.7hPa SSE 1.0mph /  1.6km/h 7.0mph /  11.3km/h 57% 0.00in /  0mm
23:39 60.2 °F /  15.7 °C 44.9 °F /  7.2 °C 29.88in /  1011.7hPa SSE 2.0mph /  3.2km/h 9.0mph /  14.5km/h 57% 0.00in /  0mm
23:44 60.2 °F /  15.7 °C 45.4 °F /  7.4 °C 29.88in /  1011.7hPa Calm   12.0mph /  19.3km/h 58% 0.00in /  0mm
23:49 60.2 °F /  15.7 °C 44.9 °F /  7.2 °C 29.88in /  1011.7hPa South 1.0mph /  1.6km/h 12.0mph /  19.3km/h 57% 0.00in /  0mm
23:54 60.2 °F /  15.7 °C 44.9 °F /  7.2 °C 29.87in /  1011.4hPa SW 1.0mph /  1.6km/h 8.0mph /  12.9km/h 57% 0.00in /  0mm
23:59 60.3 °F /  15.7 °C 44.1 °F /  6.7 °C 29.87in /  1011.4hPa SSE 3.0mph /  4.8km/h 11.0mph /  17.7km/h 55% 0.00in /  0mm
Westford Weather
Compliments of Weather Underground

 
 
Current Radar Loop:

Copyright © WestfordWeather.net 2007-2014. All rights reserved.